Indianapolis, Indiana
Traffic Map
Current Weather Conditions
Indianapolis, Indiana
Broken Clouds
Broken Clouds
10°
Feels Like: 10°
Wind Chill: 10° Ceiling: 9000
Heat Index: 10° Visibility: 10mi
Dew Point: Wind: 10mph
Humidity: 83% Direction: 210° (SSW)
Pressure: 29.93in Gusts: 0mph
Raw Report DataKIND 201254Z 21009KT 10SM FEW040 BKN090 10/07 A2993 RMK AO2 SLP138 TCU DSNT W-NW T01000072
Traffic Incident Summary
Active as of:
Severity:
Category:
InformationThere was an issue retrieving the traffic information for this location. Please try a different location or try again shortly.
Advertisements
Track Severe Weather on mobile